Time;durP1;ratioP1;P1;durP2;ratioP2;P2;SDS_P1;SDS_P2;PMS_P1;PMS_P2;Temp;Humidity;BMP_temperature;BMP_pressure;BME280_temperature;BME280_humidity;BME280_pressure;Samples;Min_cycle;Max_cycle;Signal;HPM_P1;HPM_P2
2021/08/10 00:01:24;;;;;;;11.53;10.80;;;23.30;90.70;;;;;;3625020;39;20450;-58
2021/08/10 00:03:52;;;;;;;10.70;10.10;;;23.30;90.70;;;;;;3625969;39;20466;-58
2021/08/10 00:06:22;;;;;;;11.00;10.30;;;23.30;90.70;;;;;;3625301;39;20435;-57
2021/08/10 00:08:49;;;;;;;11.70;10.80;;;23.30;90.70;;;;;;3625592;39;20482;-58
2021/08/10 00:11:16;;;;;;;10.80;10.10;;;23.30;90.70;;;;;;3626182;39;20473;-58
2021/08/10 00:13:44;;;;;;;10.90;10.13;;;23.30;91.00;;;;;;3616501;39;20821;-57
2021/08/10 00:16:11;;;;;;;11.10;10.40;;;23.20;90.70;;;;;;3626450;39;20447;-57
2021/08/10 00:18:38;;;;;;;11.47;10.80;;;23.20;90.70;;;;;;3626226;39;20439;-57
2021/08/10 00:21:06;;;;;;;11.70;10.90;;;23.20;90.70;;;;;;3619422;39;21152;-57
2021/08/10 00:23:34;;;;;;;12.13;11.23;;;23.20;90.70;;;;;;3607602;39;20958;-58
2021/08/10 00:26:02;;;;;;;10.53;9.83;;;23.20;90.70;;;;;;3606782;39;20479;-59
2021/08/10 00:28:30;;;;;;;11.33;10.63;;;23.20;90.70;;;;;;3615152;39;20535;-58
2021/08/10 00:30:57;;;;;;;12.00;11.20;;;23.20;90.70;;;;;;3616828;39;20495;-58
2021/08/10 00:33:33;;;;;;;11.20;10.50;;;23.20;90.60;;;;;;3607983;39;20451;-59
2021/08/10 00:36:01;;;;;;;11.97;11.10;;;23.20;90.60;;;;;;3606684;39;20455;-59
2021/08/10 00:38:28;;;;;;;11.60;10.70;;;23.20;90.70;;;;;;3621333;39;20531;-58
2021/08/10 00:40:58;;;;;;;12.33;10.87;;;23.20;90.70;;;;;;3627416;39;20551;-57
2021/08/10 00:43:31;;;;;;;11.40;10.40;;;23.20;90.70;;;;;;3627676;39;20713;-59
2021/08/10 00:46:01;;;;;;;11.47;10.67;;;23.20;90.70;;;;;;3617438;39;20749;-57
2021/08/10 00:48:29;;;;;;;11.70;10.80;;;23.20;90.70;;;;;;3617684;39;20478;-58
2021/08/10 00:50:58;;;;;;;11.63;11.03;;;23.20;90.70;;;;;;3627167;39;20442;-58
2021/08/10 00:53:27;;;;;;;11.20;10.50;;;23.20;90.70;;;;;;3617254;39;20494;-58
2021/08/10 00:55:54;;;;;;;10.60;10.10;;;23.20;90.70;;;;;;3617267;39;20467;-58
2021/08/10 00:58:24;;;;;;;10.83;10.23;;;23.20;90.70;;;;;;3626433;39;20469;-58
2021/08/10 01:00:52;;;;;;;10.73;9.97;;;23.20;91.00;;;;;;3617259;39;20458;-57
2021/08/10 01:03:20;;;;;;;11.40;10.70;;;23.20;90.70;;;;;;3617398;39;20466;-57
2021/08/10 01:05:50;;;;;;;10.80;10.30;;;23.20;90.70;;;;;;3617766;39;20493;-58
2021/08/10 01:08:38;;;;;;;11.77;11.07;;;23.20;90.70;;;;;;3617486;39;20600;-58
2021/08/10 01:11:15;;;;;;;11.67;10.87;;;23.20;90.70;;;;;;3616785;39;20445;-58
2021/08/10 01:13:49;;;;;;;11.33;10.63;;;23.20;90.60;;;;;;3617626;39;20501;-59
2021/08/10 01:16:25;;;;;;;10.60;9.90;;;23.20;90.70;;;;;;3618311;39;20757;-58
2021/08/10 01:19:02;;;;;;;11.37;10.67;;;23.20;90.70;;;;;;3616930;39;21099;-57
2021/08/10 01:21:35;;;;;;;10.87;10.33;;;23.20;90.70;;;;;;3607936;39;20584;-59
2021/08/10 01:24:15;;;;;;;10.70;10.00;;;23.20;90.70;;;;;;3606481;39;20474;-57
2021/08/10 01:26:55;;;;;;;12.07;11.23;;;23.20;90.70;;;;;;3605826;39;20511;-58
2021/08/10 01:29:33;;;;;;;11.20;10.60;;;23.20;90.70;;;;;;3606382;39;20458;-56
2021/08/10 01:32:03;;;;;;;10.80;10.10;;;23.10;90.60;;;;;;3606852;39;20450;-59
2021/08/10 01:34:37;;;;;;;11.53;10.80;;;23.20;90.70;;;;;;3607079;39;20864;-58
2021/08/10 01:37:15;;;;;;;11.03;10.47;;;23.20;90.70;;;;;;3606465;39;20450;-57
2021/08/10 01:39:53;;;;;;;11.20;10.57;;;23.10;90.60;;;;;;3616743;39;20451;-59
2021/08/10 01:42:24;;;;;;;10.87;10.27;;;23.10;90.50;;;;;;3607429;39;20704;-59
2021/08/10 01:44:54;;;;;;;10.80;10.00;;;23.10;90.50;;;;;;3606957;39;20471;-58
2021/08/10 01:47:24;;;;;;;10.87;10.20;;;23.10;90.50;;;;;;3605826;39;20462;-58
2021/08/10 01:49:52;;;;;;;11.30;10.60;;;23.10;90.50;;;;;;3606981;39;20550;-58
2021/08/10 01:52:22;;;;;;;10.23;9.73;;;23.10;90.50;;;;;;3616292;39;20861;-57
2021/08/10 01:54:58;;;;;;;11.20;10.50;;;23.10;90.50;;;;;;3607416;39;20547;-59
2021/08/10 01:57:27;;;;;;;10.13;9.60;;;23.10;90.40;;;;;;3606000;39;20475;-59
2021/08/10 01:59:57;;;;;;;10.40;9.90;;;23.10;90.50;;;;;;3616292;39;20540;-59
2021/08/10 02:02:25;;;;;;;11.00;10.43;;;23.10;90.40;;;;;;3606285;39;20451;-59
2021/08/10 02:05:11;;;;;;;11.20;10.50;;;23.10;90.30;;;;;;3615825;39;20460;-56
2021/08/10 02:07:39;;;;;;;11.10;10.50;;;23.10;90.40;;;;;;3606656;39;20447;-58
2021/08/10 02:10:07;;;;;;;10.87;10.27;;;23.10;90.20;;;;;;3606885;39;20826;-57
2021/08/10 02:12:37;;;;;;;10.87;10.27;;;23.10;90.50;;;;;;3606468;39;20442;-59
2021/08/10 02:15:06;;;;;;;11.60;11.00;;;23.10;90.20;;;;;;3611307;39;21073;-56
2021/08/10 02:17:46;;;;;;;11.03;10.53;;;23.10;90.30;;;;;;3616727;39;20466;-57
2021/08/10 02:20:22;;;;;;;10.97;10.37;;;23.10;90.40;;;;;;3625446;39;20458;-58
2021/08/10 02:22:50;;;;;;;10.70;10.20;;;23.10;90.40;;;;;;3608564;39;20451;-59
2021/08/10 02:25:24;;;;;;;10.80;10.20;;;23.10;90.40;;;;;;3617061;39;20882;-59
2021/08/10 02:28:06;;;;;;;10.50;10.00;;;23.10;90.30;;;;;;3616805;39;20462;-58
2021/08/10 02:30:37;;;;;;;11.50;10.80;;;23.10;90.30;;;;;;3617448;39;20454;-57
2021/08/10 02:33:08;;;;;;;10.97;10.47;;;23.10;90.40;;;;;;3625931;39;21061;-58
2021/08/10 02:35:42;;;;;;;11.60;11.10;;;23.10;90.40;;;;;;3616466;39;20821;-57
2021/08/10 02:38:14;;;;;;;11.17;10.57;;;23.10;90.40;;;;;;3626020;39;20459;-58
2021/08/10 02:40:48;;;;;;;10.93;10.43;;;23.10;90.50;;;;;;3626706;39;20458;-58
2021/08/10 02:43:18;;;;;;;11.13;10.63;;;23.10;90.40;;;;;;3617799;39;20874;-58
2021/08/10 02:45:47;;;;;;;11.97;11.27;;;23.10;90.40;;;;;;3616167;39;20848;-58
2021/08/10 02:48:19;;;;;;;10.90;10.40;;;23.10;90.30;;;;;;3611022;39;20480;-57
2021/08/10 02:50:47;;;;;;;11.47;10.67;;;23.10;90.30;;;;;;3605951;39;20464;-59
2021/08/10 02:53:15;;;;;;;11.07;10.47;;;23.10;90.30;;;;;;3606519;39;20879;-58
2021/08/10 02:55:49;;;;;;;11.37;10.57;;;23.10;90.20;;;;;;3606565;39;20461;-57
2021/08/10 02:58:21;;;;;;;11.27;10.67;;;23.10;90.00;;;;;;3605609;39;20532;-59
2021/08/10 03:00:59;;;;;;;11.77;11.27;;;23.10;89.70;;;;;;3604524;39;20460;-57
2021/08/10 03:03:32;;;;;;;11.40;10.67;;;23.00;89.60;;;;;;3605907;39;20916;-58
2021/08/10 03:06:04;;;;;;;11.40;10.90;;;23.00;89.80;;;;;;3604612;39;20545;-57
2021/08/10 03:08:35;;;;;;;11.57;10.97;;;23.00;90.00;;;;;;3604866;39;20460;-58
2021/08/10 03:11:05;;;;;;;11.37;10.77;;;23.00;90.00;;;;;;3605696;39;20472;-57
2021/08/10 03:13:38;;;;;;;11.87;11.27;;;23.00;90.10;;;;;;3604866;39;20815;-59
2021/08/10 03:16:07;;;;;;;12.10;11.50;;;23.00;90.10;;;;;;3604755;39;20522;-58
2021/08/10 03:18:38;;;;;;;12.60;12.00;;;23.00;90.00;;;;;;3604724;39;20794;-57
2021/08/10 03:21:08;;;;;;;12.60;11.90;;;23.00;90.00;;;;;;3604636;39;20475;-58
2021/08/10 03:23:40;;;;;;;13.10;12.40;;;23.00;90.10;;;;;;3604317;39;20457;-57
2021/08/10 03:26:10;;;;;;;11.97;11.07;;;23.00;90.10;;;;;;3604310;39;20470;-58
2021/08/10 03:28:41;;;;;;;11.43;10.83;;;23.10;90.10;;;;;;3605070;39;20486;-59
2021/08/10 03:31:12;;;;;;;11.30;10.80;;;23.00;90.10;;;;;;3603843;39;20432;-57
2021/08/10 03:33:42;;;;;;;12.30;11.70;;;23.00;90.20;;;;;;3604627;39;20451;-59
2021/08/10 03:36:12;;;;;;;12.30;11.60;;;23.00;90.20;;;;;;3594583;39;20488;-58
2021/08/10 03:38:40;;;;;;;11.57;11.07;;;23.00;90.20;;;;;;3603718;39;20574;-58
2021/08/10 03:41:09;;;;;;;11.60;11.10;;;23.00;90.20;;;;;;3604717;39;20468;-58
2021/08/10 03:43:37;;;;;;;11.60;11.00;;;23.00;90.20;;;;;;3604600;39;20435;-58
2021/08/10 03:46:06;;;;;;;12.70;11.90;;;23.00;90.10;;;;;;3605164;39;20467;-58
2021/08/10 03:48:38;;;;;;;12.10;11.30;;;23.00;90.10;;;;;;3604044;39;20468;-58
2021/08/10 03:51:07;;;;;;;11.70;11.20;;;23.00;90.10;;;;;;3603956;39;20914;-59
2021/08/10 03:53:35;;;;;;;13.13;12.53;;;23.00;90.10;;;;;;3603193;39;20448;-58
2021/08/10 03:56:03;;;;;;;12.87;12.27;;;23.00;90.10;;;;;;3605063;39;20460;-59
2021/08/10 03:58:39;;;;;;;13.40;12.70;;;23.00;90.10;;;;;;3604364;39;20455;-58
2021/08/10 04:01:07;;;;;;;12.77;12.03;;;23.00;90.10;;;;;;3604040;39;20481;-57
2021/08/10 04:03:37;;;;;;;12.50;11.90;;;23.00;90.10;;;;;;3603525;39;21160;-58
2021/08/10 04:06:07;;;;;;;13.27;12.33;;;23.00;90.10;;;;;;3603334;39;20484;-59
2021/08/10 04:08:35;;;;;;;13.30;12.70;;;23.00;90.10;;;;;;3604091;39;20437;-58
2021/08/10 04:11:04;;;;;;;13.90;12.83;;;23.00;90.00;;;;;;3603824;39;20562;-56
2021/08/10 04:13:32;;;;;;;13.03;12.33;;;23.00;90.00;;;;;;3602777;39;20508;-57
2021/08/10 04:16:03;;;;;;;13.83;13.03;;;23.00;89.80;;;;;;3603239;39;20468;-58
2021/08/10 04:18:37;;;;;;;13.60;12.80;;;23.00;89.70;;;;;;3602763;39;20452;-58
2021/08/10 04:21:06;;;;;;;13.10;12.50;;;23.00;89.80;;;;;;3604906;39;20788;-59
2021/08/10 04:23:33;;;;;;;14.07;13.27;;;23.00;89.80;;;;;;3602049;39;20761;-57
2021/08/10 04:26:02;;;;;;;14.33;13.33;;;23.00;89.80;;;;;;3601581;39;20487;-59
2021/08/10 04:28:30;;;;;;;13.90;13.10;;;23.00;90.00;;;;;;3601266;39;20518;-59
2021/08/10 04:30:59;;;;;;;14.83;13.77;;;23.00;90.00;;;;;;3601226;39;20541;-58
2021/08/10 04:33:27;;;;;;;14.83;13.93;;;23.00;90.00;;;;;;3602333;39;20888;-58
2021/08/10 04:35:57;;;;;;;13.77;13.00;;;23.00;90.00;;;;;;3601721;39;20537;-57
2021/08/10 04:38:26;;;;;;;14.50;13.60;;;23.00;89.90;;;;;;3601205;39;21158;-57
2021/08/10 04:40:55;;;;;;;13.70;13.07;;;23.00;89.70;;;;;;3600744;39;20803;-58
2021/08/10 04:43:29;;;;;;;14.07;13.40;;;23.00;89.30;;;;;;3600081;39;21115;-57
2021/08/10 04:45:57;;;;;;;13.80;13.10;;;23.00;89.20;;;;;;3601862;39;20526;-58
2021/08/10 04:48:25;;;;;;;13.73;12.93;;;23.00;89.00;;;;;;3600391;39;20905;-58
2021/08/10 04:50:52;;;;;;;14.03;13.13;;;22.90;89.40;;;;;;3599277;39;20547;-58
2021/08/10 04:53:21;;;;;;;13.17;12.57;;;23.00;89.80;;;;;;3598518;39;20459;-58
2021/08/10 04:55:50;;;;;;;12.80;12.10;;;22.90;89.80;;;;;;3599542;39;20480;-57
2021/08/10 04:58:19;;;;;;;13.50;12.80;;;23.00;89.80;;;;;;3599913;39;20693;-58
2021/08/10 05:00:48;;;;;;;14.77;13.43;;;23.00;89.70;;;;;;3599637;39;20480;-58
2021/08/10 05:03:15;;;;;;;14.00;13.30;;;23.00;90.00;;;;;;3600066;39;20779;-58
2021/08/10 05:05:43;;;;;;;14.00;13.30;;;22.90;90.00;;;;;;3593155;39;20471;-57
2021/08/10 05:08:11;;;;;;;14.00;13.10;;;23.00;90.00;;;;;;3601028;39;20463;-58
2021/08/10 05:10:39;;;;;;;13.50;12.90;;;23.00;90.00;;;;;;3600588;39;20933;-58
2021/08/10 05:13:07;;;;;;;13.60;13.00;;;22.90;90.00;;;;;;3599796;39;20455;-57
2021/08/10 05:15:36;;;;;;;13.87;13.07;;;23.00;90.00;;;;;;3600197;39;20558;-55
2021/08/10 05:18:04;;;;;;;13.60;12.90;;;23.00;90.00;;;;;;3598751;39;21155;-58
2021/08/10 05:20:33;;;;;;;13.50;12.90;;;23.00;90.00;;;;;;3600312;39;20472;-57
2021/08/10 05:23:01;;;;;;;14.40;13.50;;;23.00;90.10;;;;;;3600066;39;20541;-59
2021/08/10 05:25:28;;;;;;;13.73;13.13;;;23.00;89.90;;;;;;3597004;39;20937;-57
2021/08/10 05:27:56;;;;;;;14.20;13.50;;;23.00;89.90;;;;;;3589025;39;20553;-58
2021/08/10 05:30:25;;;;;;;15.40;14.60;;;23.00;90.00;;;;;;3596806;39;21163;-57
2021/08/10 05:32:53;;;;;;;13.80;13.10;;;23.00;90.00;;;;;;3596852;39;20472;-57
2021/08/10 05:35:21;;;;;;;14.33;13.63;;;23.00;89.90;;;;;;3597202;39;20468;-58
2021/08/10 05:37:48;;;;;;;13.73;12.87;;;22.90;89.80;;;;;;3598519;39;20498;-56
2021/08/10 05:40:15;;;;;;;13.90;13.10;;;22.90;89.80;;;;;;3597846;39;20863;-57
2021/08/10 05:42:42;;;;;;;13.80;13.10;;;22.90;90.00;;;;;;3597112;39;20504;-57
2021/08/10 05:45:13;;;;;;;13.50;12.80;;;22.90;90.00;;;;;;3596309;39;20473;-58
2021/08/10 05:47:42;;;;;;;13.90;13.30;;;22.90;90.00;;;;;;3597127;39;20452;-59
2021/08/10 05:50:11;;;;;;;14.20;13.30;;;22.90;90.00;;;;;;3604446;39;20483;-57
2021/08/10 05:52:38;;;;;;;14.70;14.00;;;22.90;90.00;;;;;;3605573;39;20489;-58
2021/08/10 05:55:06;;;;;;;13.10;12.40;;;22.90;90.00;;;;;;3605716;39;20560;-58
2021/08/10 05:57:34;;;;;;;13.60;12.77;;;23.00;90.10;;;;;;3606885;39;20475;-58
2021/08/10 06:00:01;;;;;;;13.50;12.80;;;23.00;90.00;;;;;;3603689;39;20555;-58
2021/08/10 06:02:36;;;;;;;12.93;12.33;;;23.00;90.00;;;;;;3602626;39;20484;-58
2021/08/10 06:05:07;;;;;;;13.53;12.83;;;23.00;90.00;;;;;;3601306;39;20695;-59
2021/08/10 06:07:34;;;;;;;12.97;12.17;;;23.00;90.00;;;;;;3603229;39;20473;-59
2021/08/10 06:10:02;;;;;;;13.07;12.33;;;22.90;90.00;;;;;;3600067;39;20470;-58
2021/08/10 06:12:30;;;;;;;14.07;13.03;;;22.90;90.30;;;;;;3598776;39;20540;-58
2021/08/10 06:14:57;;;;;;;13.60;12.53;;;22.90;90.00;;;;;;3605133;39;20459;-57
2021/08/10 06:17:25;;;;;;;13.30;12.50;;;23.00;90.00;;;;;;3597765;39;20455;-58
2021/08/10 06:19:52;;;;;;;14.40;13.30;;;23.00;90.10;;;;;;3598873;39;21306;-57
2021/08/10 06:22:22;;;;;;;13.67;12.97;;;22.90;89.70;;;;;;3596160;39;20770;-55
2021/08/10 06:24:49;;;;;;;13.47;12.60;;;22.50;89.70;;;;;;3587877;39;20577;-56
2021/08/10 06:27:17;;;;;;;13.80;13.00;;;21.80;90.50;;;;;;3596785;39;20526;-56
2021/08/10 06:29:45;;;;;;;12.80;12.30;;;21.30;91.30;;;;;;3597393;39;20471;-55
2021/08/10 06:32:16;;;;;;;14.00;13.10;;;20.90;91.90;;;;;;3596195;39;20522;-56
2021/08/10 06:34:49;;;;;;;13.27;12.57;;;20.60;92.20;;;;;;3605819;39;20436;-57
2021/08/10 06:37:51;;;;;;;14.27;13.37;;;20.40;92.80;;;;;;3594873;39;20520;-56
2021/08/10 06:40:20;;;;;;;13.70;13.00;;;20.20;92.70;;;;;;3598871;39;20546;-57
2021/08/10 06:42:51;;;;;;;14.17;13.47;;;20.10;93.20;;;;;;3589380;39;20511;-57
2021/08/10 06:45:20;;;;;;;13.70;12.90;;;19.90;93.60;;;;;;3592418;39;20518;-58
2021/08/10 06:47:49;;;;;;;16.77;13.57;;;19.80;93.70;;;;;;3603888;39;20475;-58
2021/08/10 06:50:25;;;;;;;12.97;12.37;;;19.80;94.30;;;;;;3587195;39;20480;-58
2021/08/10 06:52:55;;;;;;;13.13;12.53;;;19.70;95.20;;;;;;3585900;39;20874;-58
2021/08/10 06:55:24;;;;;;;13.00;12.40;;;19.70;95.40;;;;;;3587369;39;20469;-56
2021/08/10 06:57:53;;;;;;;14.07;13.37;;;19.70;95.70;;;;;;3579240;39;20634;-58
2021/08/10 07:00:22;;;;;;;13.83;13.13;;;19.70;96.00;;;;;;3577247;39;20882;-56
2021/08/10 07:02:49;;;;;;;13.53;12.83;;;19.70;96.70;;;;;;3586803;39;20467;-56
2021/08/10 07:05:19;;;;;;;14.80;14.00;;;19.70;96.90;;;;;;3586709;39;20488;-56
2021/08/10 07:07:48;;;;;;;13.57;12.67;;;19.80;96.70;;;;;;3584563;39;20468;-59
2021/08/10 07:10:17;;;;;;;15.10;14.00;;;19.80;96.30;;;;;;3585955;39;21141;-58
2021/08/10 07:12:49;;;;;;;14.17;13.03;;;19.80;96.30;;;;;;3585216;39;20898;-59
2021/08/10 07:15:16;;;;;;;13.30;12.60;;;19.80;96.90;;;;;;3586883;39;20484;-59
2021/08/10 07:17:45;;;;;;;13.10;12.50;;;19.80;97.30;;;;;;3583607;39;20885;-59
2021/08/10 07:20:24;;;;;;;13.40;12.67;;;19.80;97.90;;;;;;3584750;39;20452;-59
2021/08/10 07:22:52;;;;;;;13.80;13.00;;;19.90;98.40;;;;;;3584563;39;20507;-59
2021/08/10 07:25:21;;;;;;;14.50;13.50;;;20.00;98.40;;;;;;3588288;39;20465;-58
2021/08/10 07:27:50;;;;;;;13.97;13.07;;;20.10;98.10;;;;;;3585335;39;20517;-58
2021/08/10 07:30:17;;;;;;;13.00;12.23;;;20.20;97.40;;;;;;3586424;39;20527;-60
2021/08/10 07:32:49;;;;;;;12.40;11.80;;;20.30;97.10;;;;;;3585427;39;20473;-59
2021/08/10 07:35:17;;;;;;;13.47;12.70;;;20.30;96.80;;;;;;3589182;39;20472;-59
2021/08/10 07:37:47;;;;;;;14.00;13.20;;;20.40;97.00;;;;;;3586379;39;20457;-59
2021/08/10 07:40:16;;;;;;;13.17;12.47;;;20.50;97.20;;;;;;3585780;39;20445;-58
2021/08/10 07:42:48;;;;;;;13.43;12.70;;;20.60;97.20;;;;;;3586387;39;20557;-58
2021/08/10 07:45:20;;;;;;;12.90;12.07;;;20.70;96.70;;;;;;3586217;39;20550;-58
2021/08/10 07:47:49;;;;;;;15.30;12.40;;;20.70;96.60;;;;;;3580554;39;20453;-59
2021/08/10 07:50:19;;;;;;;13.00;12.40;;;20.80;96.90;;;;;;3585405;39;20488;-58
2021/08/10 07:52:48;;;;;;;13.30;12.60;;;21.00;96.80;;;;;;3574488;39;20559;-59
2021/08/10 07:55:16;;;;;;;12.30;11.73;;;21.10;96.50;;;;;;3586975;39;20466;-59
2021/08/10 07:57:47;;;;;;;14.10;13.20;;;21.20;96.50;;;;;;3587392;39;20472;-59
2021/08/10 08:00:20;;;;;;;13.13;12.33;;;21.20;96.60;;;;;;3576114;39;20526;-58
2021/08/10 08:02:52;;;;;;;14.20;13.20;;;21.20;96.50;;;;;;3574702;39;20517;-58
2021/08/10 08:05:20;;;;;;;15.43;14.40;;;21.20;96.40;;;;;;3578149;39;20576;-59
2021/08/10 08:07:48;;;;;;;13.57;12.67;;;21.20;96.30;;;;;;3586345;39;20476;-58
2021/08/10 08:10:15;;;;;;;12.67;12.07;;;21.30;96.30;;;;;;3583441;39;20448;-59
2021/08/10 08:12:44;;;;;;;12.97;12.27;;;21.30;96.50;;;;;;3570541;39;20485;-59
2021/08/10 08:15:13;;;;;;;12.80;11.80;;;21.30;96.30;;;;;;3578518;39;20532;-59
2021/08/10 08:17:41;;;;;;;12.63;11.90;;;21.40;96.40;;;;;;3583602;39;20464;-58
2021/08/10 08:20:10;;;;;;;12.47;11.87;;;21.50;96.50;;;;;;3584943;39;20469;-59
2021/08/10 08:22:37;;;;;;;12.43;11.83;;;21.60;96.50;;;;;;3574384;39;20497;-59
2021/08/10 08:25:05;;;;;;;12.70;11.93;;;21.60;96.20;;;;;;3577439;39;20449;-59
2021/08/10 08:27:33;;;;;;;12.50;11.70;;;21.60;96.30;;;;;;3573779;39;20476;-59
2021/08/10 08:30:01;;;;;;;12.67;11.97;;;21.70;96.40;;;;;;3575485;39;20480;-59
2021/08/10 08:32:31;;;;;;;12.60;12.00;;;21.80;96.50;;;;;;3573697;39;20476;-59
2021/08/10 08:34:59;;;;;;;12.53;11.90;;;21.90;96.70;;;;;;3574011;40;20899;-59
2021/08/10 08:37:28;;;;;;;12.73;11.87;;;21.90;96.50;;;;;;3580107;39;20472;-59
2021/08/10 08:39:55;;;;;;;11.80;11.20;;;21.90;96.90;;;;;;3585435;39;20544;-59
2021/08/10 08:42:23;;;;;;;11.73;11.20;;;22.00;96.80;;;;;;3581291;39;20561;-59
2021/08/10 08:44:51;;;;;;;13.10;12.30;;;22.10;96.40;;;;;;3582821;39;20481;-59
2021/08/10 08:47:23;;;;;;;13.13;12.33;;;22.20;96.30;;;;;;3580118;39;20622;-58
2021/08/10 08:49:57;;;;;;;12.23;11.50;;;22.20;96.40;;;;;;3587193;39;20503;-57
2021/08/10 08:52:28;;;;;;;11.27;10.77;;;22.20;95.70;;;;;;3576672;39;20485;-59
2021/08/10 08:54:57;;;;;;;12.10;11.67;;;22.30;95.60;;;;;;3574961;40;21251;-58
2021/08/10 08:57:25;;;;;;;12.13;11.07;;;22.40;95.50;;;;;;3577099;40;20449;-57
2021/08/10 08:59:52;;;;;;;11.70;11.10;;;22.40;95.40;;;;;;3578728;39;20493;-58
2021/08/10 09:02:20;;;;;;;12.27;11.47;;;22.40;95.30;;;;;;3581465;39;20476;-59
2021/08/10 09:04:49;;;;;;;12.13;11.50;;;22.40;95.20;;;;;;3577873;39;20465;-59
2021/08/10 09:07:27;;;;;;;11.57;11.07;;;22.50;95.30;;;;;;3576947;39;20468;-57
2021/08/10 09:10:06;;;;;;;12.00;11.40;;;22.50;95.20;;;;;;3587745;39;20452;-56
2021/08/10 09:12:42;;;;;;;10.90;10.50;;;22.50;95.00;;;;;;3578496;39;20496;-56
2021/08/10 09:15:12;;;;;;;12.20;11.50;;;22.60;94.90;;;;;;3573837;39;20484;-57
2021/08/10 09:17:47;;;;;;;11.47;10.87;;;22.60;94.70;;;;;;3574618;39;20957;-57
2021/08/10 09:20:21;;;;;;;11.80;11.10;;;22.60;94.50;;;;;;3572483;40;20461;-58
2021/08/10 09:22:56;;;;;;;11.23;10.63;;;22.60;94.40;;;;;;3578726;39;20472;-58
2021/08/10 09:25:54;;;;;;;11.80;11.20;;;22.70;94.40;;;;;;3578938;39;20590;-57
2021/08/10 09:28:33;;;;;;;11.23;10.73;;;22.70;94.60;;;;;;3567052;40;21372;-57
2021/08/10 09:31:28;;;;;;;12.47;11.80;;;22.70;94.20;;;;;;3574206;40;20476;-58
2021/08/10 09:33:57;;;;;;;11.33;10.80;;;22.70;94.20;;;;;;3577000;39;20462;-57
2021/08/10 09:36:26;;;;;;;12.03;11.30;;;22.70;94.10;;;;;;3582620;39;20505;-59
2021/08/10 09:38:57;;;;;;;11.27;10.57;;;22.70;94.00;;;;;;3580424;39;20468;-58
2021/08/10 09:41:25;;;;;;;11.00;10.50;;;22.70;94.00;;;;;;3582708;39;20452;-58
2021/08/10 09:44:07;;;;;;;11.77;11.07;;;22.80;94.00;;;;;;3576874;39;20469;-58
2021/08/10 09:46:36;;;;;;;12.03;11.40;;;22.80;94.00;;;;;;3574035;39;20461;-58
2021/08/10 09:49:07;;;;;;;11.47;10.97;;;22.80;94.00;;;;;;3572120;39;20445;-58
2021/08/10 09:51:42;;;;;;;10.77;10.37;;;22.80;93.90;;;;;;3577605;39;20548;-58
2021/08/10 09:54:12;;;;;;;11.03;10.50;;;22.80;93.90;;;;;;3587188;39;20458;-58
2021/08/10 09:56:48;;;;;;;11.80;11.20;;;22.80;93.90;;;;;;3584051;39;20443;-57
2021/08/10 09:59:16;;;;;;;10.97;10.57;;;22.80;93.90;;;;;;3586254;39;20560;-58
2021/08/10 10:01:46;;;;;;;11.03;10.53;;;22.80;93.80;;;;;;3593186;39;20507;-58
2021/08/10 10:04:16;;;;;;;11.23;10.63;;;22.80;93.80;;;;;;3600108;39;20477;-58
2021/08/10 10:06:49;;;;;;;10.93;10.40;;;22.80;93.80;;;;;;3598802;39;21019;-58
2021/08/10 10:09:19;;;;;;;11.40;10.80;;;22.80;93.70;;;;;;3585653;39;20458;-57
2021/08/10 10:11:49;;;;;;;11.90;11.30;;;22.80;94.00;;;;;;3584397;39;20452;-56
2021/08/10 10:14:17;;;;;;;11.43;10.93;;;22.80;93.70;;;;;;3584423;39;20470;-57
2021/08/10 10:16:48;;;;;;;11.83;11.23;;;22.80;93.70;;;;;;3605672;39;20467;-56
2021/08/10 10:19:18;;;;;;;10.87;10.37;;;22.80;93.60;;;;;;3605041;39;20471;-57
2021/08/10 10:21:49;;;;;;;12.20;11.60;;;22.90;93.60;;;;;;3606769;39;20506;-55
2021/08/10 10:24:19;;;;;;;10.97;10.47;;;22.90;93.60;;;;;;3602811;39;20456;-53
2021/08/10 10:26:49;;;;;;;10.80;10.40;;;22.90;93.60;;;;;;3601458;39;20457;-57
2021/08/10 10:29:17;;;;;;;11.60;11.10;;;22.90;93.50;;;;;;3602283;39;20551;-57
2021/08/10 10:31:45;;;;;;;11.70;11.00;;;22.90;93.50;;;;;;3603694;39;20548;-57
2021/08/10 10:34:17;;;;;;;11.00;10.60;;;22.90;93.40;;;;;;3596824;39;20657;-57
2021/08/10 10:36:53;;;;;;;11.90;10.97;;;22.90;93.40;;;;;;3594955;39;20846;-56
2021/08/10 10:39:26;;;;;;;11.30;10.80;;;22.90;93.30;;;;;;3603372;39;20482;-58
2021/08/10 10:42:00;;;;;;;11.60;11.10;;;22.90;93.30;;;;;;3607677;39;20474;-58
2021/08/10 10:44:51;;;;;;;11.80;11.20;;;22.90;93.20;;;;;;3597663;39;20483;-59
2021/08/10 10:47:34;;;;;;;12.37;11.83;;;22.90;93.20;;;;;;3603107;39;20853;-59
2021/08/10 10:50:16;;;;;;;11.47;11.07;;;22.90;93.10;;;;;;3594986;39;20448;-58
2021/08/10 10:53:01;;;;;;;12.60;11.93;;;22.90;93.10;;;;;;3598630;39;20471;-57
2021/08/10 10:55:42;;;;;;;11.43;10.83;;;22.90;93.10;;;;;;3595999;39;20490;-58
2021/08/10 10:58:30;;;;;;;11.50;11.00;;;23.00;93.10;;;;;;3596012;39;20915;-59
2021/08/10 11:01:18;;;;;;;11.70;11.00;;;22.90;93.10;;;;;;3596409;39;20552;-58
2021/08/10 11:04:11;;;;;;;11.40;10.70;;;22.90;93.10;;;;;;3593087;39;20448;-58
2021/08/10 11:06:43;;;;;;;12.10;11.40;;;22.90;93.00;;;;;;3593137;39;20475;-57
2021/08/10 11:09:59;;;;;;;11.73;11.03;;;22.90;93.00;;;;;;3598980;39;21065;-59
2021/08/10 11:12:54;;;;;;;11.00;10.50;;;22.90;93.00;;;;;;3601223;39;20462;-57
2021/08/10 11:15:22;;;;;;;11.40;10.90;;;23.00;93.00;;;;;;3572848;39;20477;-58
2021/08/10 11:18:23;;;;;;;11.10;10.50;;;23.00;93.00;;;;;;3608427;39;20555;-58
2021/08/10 11:20:52;;;;;;;11.00;10.60;;;23.00;93.00;;;;;;3598778;39;21200;-58
2021/08/10 11:23:34;;;;;;;11.03;10.23;;;23.00;93.00;;;;;;3610110;39;20636;-58
2021/08/10 11:26:33;;;;;;;10.90;10.40;;;23.00;93.00;;;;;;3603999;39;20478;-58
2021/08/10 11:29:04;;;;;;;10.07;9.67;;;23.00;92.90;;;;;;3610896;39;20482;-58
2021/08/10 11:31:34;;;;;;;10.80;10.20;;;23.00;92.90;;;;;;3599947;39;20536;-58
2021/08/10 11:34:03;;;;;;;10.23;9.83;;;23.00;92.90;;;;;;3604372;39;20790;-58
2021/08/10 11:36:31;;;;;;;11.27;10.67;;;23.00;92.80;;;;;;3603302;39;20865;-58
2021/08/10 11:39:13;;;;;;;11.23;10.43;;;23.00;92.80;;;;;;3598574;39;20551;-57
2021/08/10 11:41:41;;;;;;;10.90;10.30;;;23.00;92.80;;;;;;3604176;39;20470;-57
2021/08/10 11:44:19;;;;;;;12.30;11.70;;;23.00;92.80;;;;;;3606053;39;20443;-57
2021/08/10 11:46:48;;;;;;;11.40;10.80;;;23.00;92.70;;;;;;3603057;39;20499;-58
2021/08/10 11:49:22;;;;;;;10.77;10.17;;;23.00;92.70;;;;;;3597481;39;20540;-59
2021/08/10 11:51:53;;;;;;;10.90;10.50;;;23.00;92.70;;;;;;3597893;39;20865;-59
2021/08/10 11:54:23;;;;;;;11.20;10.73;;;23.00;92.70;;;;;;3604791;39;20458;-57
2021/08/10 11:56:54;;;;;;;11.27;10.47;;;23.00;92.70;;;;;;3596932;39;20657;-59
2021/08/10 11:59:24;;;;;;;10.10;9.70;;;23.10;92.70;;;;;;3590475;39;20467;-59
2021/08/10 12:01:54;;;;;;;12.20;11.60;;;23.00;92.70;;;;;;3592731;39;20764;-55
2021/08/10 12:04:23;;;;;;;10.40;9.90;;;23.00;92.70;;;;;;3591933;39;20856;-57
2021/08/10 12:06:53;;;;;;;12.23;11.43;;;23.00;92.70;;;;;;3591781;39;20478;-58
2021/08/10 12:09:22;;;;;;;11.83;11.07;;;23.00;92.70;;;;;;3598058;39;20482;-58
2021/08/10 12:11:53;;;;;;;10.90;10.40;;;23.00;92.70;;;;;;3599422;39;20455;-58
2021/08/10 12:14:24;;;;;;;10.20;9.80;;;23.10;92.80;;;;;;3600074;39;20548;-59
2021/08/10 12:16:59;;;;;;;10.70;10.20;;;23.10;92.80;;;;;;3593271;39;21289;-58
2021/08/10 12:19:36;;;;;;;11.30;10.70;;;23.10;92.80;;;;;;3599352;39;20467;-59
2021/08/10 12:22:07;;;;;;;10.67;10.27;;;23.10;92.80;;;;;;3605615;39;20478;-58
2021/08/10 12:24:38;;;;;;;11.70;11.20;;;23.10;92.80;;;;;;3607250;39;20489;-58
2021/08/10 12:27:06;;;;;;;11.80;11.00;;;23.10;92.80;;;;;;3605253;39;20458;-57
2021/08/10 12:29:37;;;;;;;12.20;11.50;;;23.10;92.80;;;;;;3609391;39;20961;-58
2021/08/10 12:32:06;;;;;;;11.63;11.03;;;23.10;92.80;;;;;;3608889;39;20446;-58
2021/08/10 12:34:35;;;;;;;11.63;11.13;;;23.10;92.90;;;;;;3608932;39;20671;-57
2021/08/10 12:37:04;;;;;;;11.60;11.00;;;23.10;92.90;;;;;;3605657;39;20471;-58
2021/08/10 12:39:36;;;;;;;11.67;11.10;;;23.10;92.90;;;;;;3599383;39;20542;-58
2021/08/10 12:42:05;;;;;;;13.00;10.83;;;23.10;92.90;;;;;;3597817;39;20459;-58
2021/08/10 12:44:32;;;;;;;11.73;11.13;;;23.10;92.90;;;;;;3598565;39;20532;-58
2021/08/10 12:47:04;;;;;;;12.70;11.70;;;23.10;92.90;;;;;;3599541;39;20783;-59
2021/08/10 12:49:36;;;;;;;12.17;11.57;;;23.10;92.90;;;;;;3593898;39;20537;-58